sensor_id;sensor_type;location;lat;lon;timestamp;P1;durP1;ratioP1;P2;durP2;ratioP2
84027;SDS011;74111;45.650;25.612;2024-01-25T00:02:00;22.10;;;11.70;;
84027;SDS011;74111;45.650;25.612;2024-01-25T00:04:28;11.90;;;6.70;;
84027;SDS011;74111;45.650;25.612;2024-01-25T00:06:57;19.60;;;9.10;;
84027;SDS011;74111;45.650;25.612;2024-01-25T00:09:25;23.70;;;10.50;;
84027;SDS011;74111;45.650;25.612;2024-01-25T00:11:54;15.10;;;7.70;;
84027;SDS011;74111;45.650;25.612;2024-01-25T00:14:22;18.90;;;10.00;;
84027;SDS011;74111;45.650;25.612;2024-01-25T00:16:50;21.70;;;9.80;;
84027;SDS011;74111;45.650;25.612;2024-01-25T00:19:19;15.40;;;7.60;;
84027;SDS011;74111;45.650;25.612;2024-01-25T00:21:47;19.30;;;8.80;;
84027;SDS011;74111;45.650;25.612;2024-01-25T00:24:16;17.20;;;8.40;;
84027;SDS011;74111;45.650;25.612;2024-01-25T00:26:44;9.80;;;6.00;;
84027;SDS011;74111;45.650;25.612;2024-01-25T00:29:12;13.60;;;8.80;;
84027;SDS011;74111;45.650;25.612;2024-01-25T00:31:40;17.70;;;8.80;;
84027;SDS011;74111;45.650;25.612;2024-01-25T00:34:08;12.80;;;7.00;;
84027;SDS011;74111;45.650;25.612;2024-01-25T00:36:37;14.00;;;7.30;;
84027;SDS011;74111;45.650;25.612;2024-01-25T00:39:05;19.30;;;9.40;;
84027;SDS011;74111;45.650;25.612;2024-01-25T00:41:34;11.10;;;4.90;;
84027;SDS011;74111;45.650;25.612;2024-01-25T00:44:05;9.20;;;5.70;;
84027;SDS011;74111;45.650;25.612;2024-01-25T00:46:34;19.60;;;9.60;;
84027;SDS011;74111;45.650;25.612;2024-01-25T00:49:02;14.10;;;8.40;;
84027;SDS011;74111;45.650;25.612;2024-01-25T00:51:31;17.10;;;9.40;;
84027;SDS011;74111;45.650;25.612;2024-01-25T00:53:59;10.10;;;5.60;;
84027;SDS011;74111;45.650;25.612;2024-01-25T00:56:28;11.90;;;7.50;;
84027;SDS011;74111;45.650;25.612;2024-01-25T00:58:56;16.90;;;7.60;;
84027;SDS011;74111;45.650;25.612;2024-01-25T01:01:25;15.00;;;8.60;;
84027;SDS011;74111;45.650;25.612;2024-01-25T01:03:55;19.20;;;9.20;;
84027;SDS011;74111;45.650;25.612;2024-01-25T01:06:26;16.00;;;9.00;;
84027;SDS011;74111;45.650;25.612;2024-01-25T01:08:55;11.40;;;6.50;;
84027;SDS011;74111;45.650;25.612;2024-01-25T01:11:24;17.90;;;8.20;;
84027;SDS011;74111;45.650;25.612;2024-01-25T01:13:52;15.00;;;6.50;;
84027;SDS011;74111;45.650;25.612;2024-01-25T01:16:20;22.20;;;10.40;;
84027;SDS011;74111;45.650;25.612;2024-01-25T01:18:49;21.80;;;10.50;;
84027;SDS011;74111;45.650;25.612;2024-01-25T01:21:17;14.80;;;9.60;;
84027;SDS011;74111;45.650;25.612;2024-01-25T01:23:46;15.70;;;8.60;;
84027;SDS011;74111;45.650;25.612;2024-01-25T01:26:14;13.60;;;7.00;;
84027;SDS011;74111;45.650;25.612;2024-01-25T01:28:42;12.80;;;7.40;;
84027;SDS011;74111;45.650;25.612;2024-01-25T01:31:10;9.80;;;6.40;;
84027;SDS011;74111;45.650;25.612;2024-01-25T01:33:38;15.70;;;9.40;;
84027;SDS011;74111;45.650;25.612;2024-01-25T01:36:06;12.20;;;7.00;;
84027;SDS011;74111;45.650;25.612;2024-01-25T01:38:35;10.80;;;6.50;;
84027;SDS011;74111;45.650;25.612;2024-01-25T01:41:03;14.10;;;7.70;;
84027;SDS011;74111;45.650;25.612;2024-01-25T01:43:31;11.70;;;7.50;;
84027;SDS011;74111;45.650;25.612;2024-01-25T01:46:00;12.80;;;7.50;;
84027;SDS011;74111;45.650;25.612;2024-01-25T01:49:08;10.00;;;5.90;;
84027;SDS011;74111;45.650;25.612;2024-01-25T01:51:40;13.20;;;7.80;;
84027;SDS011;74111;45.650;25.612;2024-01-25T01:54:10;12.40;;;8.00;;
84027;SDS011;74111;45.650;25.612;2024-01-25T01:56:39;15.70;;;8.80;;
84027;SDS011;74111;45.650;25.612;2024-01-25T01:59:10;12.80;;;7.30;;
84027;SDS011;74111;45.650;25.612;2024-01-25T02:01:39;11.70;;;7.10;;
84027;SDS011;74111;45.650;25.612;2024-01-25T02:04:08;12.60;;;6.80;;
84027;SDS011;74111;45.650;25.612;2024-01-25T02:06:36;12.60;;;6.60;;
84027;SDS011;74111;45.650;25.612;2024-01-25T02:09:04;10.70;;;5.30;;
84027;SDS011;74111;45.650;25.612;2024-01-25T02:11:33;7.10;;;5.40;;
84027;SDS011;74111;45.650;25.612;2024-01-25T02:14:01;9.50;;;4.00;;
84027;SDS011;74111;45.650;25.612;2024-01-25T02:16:29;9.00;;;4.80;;
84027;SDS011;74111;45.650;25.612;2024-01-25T02:18:57;9.60;;;5.40;;
84027;SDS011;74111;45.650;25.612;2024-01-25T02:21:26;6.80;;;4.20;;
84027;SDS011;74111;45.650;25.612;2024-01-25T02:23:55;9.10;;;5.20;;
84027;SDS011;74111;45.650;25.612;2024-01-25T02:26:23;10.90;;;6.10;;
84027;SDS011;74111;45.650;25.612;2024-01-25T02:28:52;7.50;;;5.00;;
84027;SDS011;74111;45.650;25.612;2024-01-25T02:31:22;9.30;;;5.30;;
84027;SDS011;74111;45.650;25.612;2024-01-25T02:33:50;9.00;;;4.80;;
84027;SDS011;74111;45.650;25.612;2024-01-25T02:36:21;7.70;;;4.90;;
84027;SDS011;74111;45.650;25.612;2024-01-25T02:38:50;7.80;;;4.40;;
84027;SDS011;74111;45.650;25.612;2024-01-25T02:41:19;7.20;;;4.70;;
84027;SDS011;74111;45.650;25.612;2024-01-25T02:43:47;8.50;;;5.30;;
84027;SDS011;74111;45.650;25.612;2024-01-25T02:46:15;11.60;;;5.50;;
84027;SDS011;74111;45.650;25.612;2024-01-25T02:48:43;6.50;;;4.30;;
84027;SDS011;74111;45.650;25.612;2024-01-25T02:51:14;7.50;;;4.00;;
84027;SDS011;74111;45.650;25.612;2024-01-25T02:53:42;7.00;;;4.50;;
84027;SDS011;74111;45.650;25.612;2024-01-25T02:56:11;4.00;;;2.60;;
84027;SDS011;74111;45.650;25.612;2024-01-25T02:58:39;7.80;;;4.50;;
84027;SDS011;74111;45.650;25.612;2024-01-25T03:01:07;6.40;;;4.30;;
84027;SDS011;74111;45.650;25.612;2024-01-25T03:03:36;8.20;;;5.20;;
84027;SDS011;74111;45.650;25.612;2024-01-25T03:06:05;10.20;;;4.60;;
84027;SDS011;74111;45.650;25.612;2024-01-25T03:08:34;8.00;;;5.40;;
84027;SDS011;74111;45.650;25.612;2024-01-25T03:11:02;10.00;;;6.60;;
84027;SDS011;74111;45.650;25.612;2024-01-25T03:13:32;9.50;;;5.80;;
84027;SDS011;74111;45.650;25.612;2024-01-25T03:16:02;10.90;;;6.50;;
84027;SDS011;74111;45.650;25.612;2024-01-25T03:18:30;8.20;;;4.20;;
84027;SDS011;74111;45.650;25.612;2024-01-25T03:20:59;7.60;;;4.70;;
84027;SDS011;74111;45.650;25.612;2024-01-25T03:23:27;10.00;;;5.30;;
84027;SDS011;74111;45.650;25.612;2024-01-25T03:25:55;8.40;;;5.30;;
84027;SDS011;74111;45.650;25.612;2024-01-25T03:28:24;7.50;;;4.50;;
84027;SDS011;74111;45.650;25.612;2024-01-25T03:30:52;6.80;;;3.80;;
84027;SDS011;74111;45.650;25.612;2024-01-25T03:33:20;6.80;;;2.80;;
84027;SDS011;74111;45.650;25.612;2024-01-25T03:35:49;8.00;;;5.20;;
84027;SDS011;74111;45.650;25.612;2024-01-25T03:38:18;7.00;;;3.70;;
84027;SDS011;74111;45.650;25.612;2024-01-25T03:40:46;8.80;;;4.90;;
84027;SDS011;74111;45.650;25.612;2024-01-25T03:43:15;6.10;;;3.70;;
84027;SDS011;74111;45.650;25.612;2024-01-25T03:45:51;8.30;;;4.90;;
84027;SDS011;74111;45.650;25.612;2024-01-25T03:48:19;5.00;;;3.20;;
84027;SDS011;74111;45.650;25.612;2024-01-25T03:50:50;7.50;;;4.20;;
84027;SDS011;74111;45.650;25.612;2024-01-25T03:53:18;8.20;;;5.00;;
84027;SDS011;74111;45.650;25.612;2024-01-25T03:55:47;13.20;;;5.90;;
84027;SDS011;74111;45.650;25.612;2024-01-25T03:58:17;10.50;;;6.10;;
84027;SDS011;74111;45.650;25.612;2024-01-25T04:00:46;13.80;;;5.10;;
84027;SDS011;74111;45.650;25.612;2024-01-25T04:03:14;9.80;;;6.00;;
84027;SDS011;74111;45.650;25.612;2024-01-25T04:05:44;11.70;;;7.40;;
84027;SDS011;74111;45.650;25.612;2024-01-25T04:08:12;10.80;;;6.50;;
84027;SDS011;74111;45.650;25.612;2024-01-25T04:10:40;12.10;;;6.80;;
84027;SDS011;74111;45.650;25.612;2024-01-25T04:13:09;10.60;;;6.40;;
84027;SDS011;74111;45.650;25.612;2024-01-25T04:15:37;11.60;;;6.40;;
84027;SDS011;74111;45.650;25.612;2024-01-25T04:18:05;12.10;;;7.70;;
84027;SDS011;74111;45.650;25.612;2024-01-25T04:20:33;14.60;;;8.80;;
84027;SDS011;74111;45.650;25.612;2024-01-25T04:23:02;11.60;;;7.20;;
84027;SDS011;74111;45.650;25.612;2024-01-25T04:25:30;11.30;;;6.90;;
84027;SDS011;74111;45.650;25.612;2024-01-25T04:28:01;13.60;;;7.20;;
84027;SDS011;74111;45.650;25.612;2024-01-25T04:30:30;13.30;;;6.90;;
84027;SDS011;74111;45.650;25.612;2024-01-25T04:33:01;10.50;;;6.40;;
84027;SDS011;74111;45.650;25.612;2024-01-25T04:35:30;12.90;;;7.00;;
84027;SDS011;74111;45.650;25.612;2024-01-25T04:37:59;12.60;;;6.80;;
84027;SDS011;74111;45.650;25.612;2024-01-25T04:40:27;11.90;;;6.10;;
84027;SDS011;74111;45.650;25.612;2024-01-25T04:42:56;15.60;;;7.10;;
84027;SDS011;74111;45.650;25.612;2024-01-25T04:45:24;12.30;;;6.40;;
84027;SDS011;74111;45.650;25.612;2024-01-25T04:47:52;13.80;;;6.20;;
84027;SDS011;74111;45.650;25.612;2024-01-25T04:50:21;13.60;;;8.00;;
84027;SDS011;74111;45.650;25.612;2024-01-25T04:52:49;18.10;;;9.30;;
84027;SDS011;74111;45.650;25.612;2024-01-25T04:55:17;17.20;;;9.20;;
84027;SDS011;74111;45.650;25.612;2024-01-25T04:57:47;19.10;;;8.70;;
84027;SDS011;74111;45.650;25.612;2024-01-25T05:00:17;12.20;;;8.00;;
84027;SDS011;74111;45.650;25.612;2024-01-25T05:02:45;10.70;;;7.40;;
84027;SDS011;74111;45.650;25.612;2024-01-25T05:05:14;14.50;;;7.80;;
84027;SDS011;74111;45.650;25.612;2024-01-25T05:07:43;16.70;;;8.70;;
84027;SDS011;74111;45.650;25.612;2024-01-25T05:10:11;14.20;;;7.00;;
84027;SDS011;74111;45.650;25.612;2024-01-25T05:12:40;13.80;;;6.60;;
84027;SDS011;74111;45.650;25.612;2024-01-25T05:15:08;15.40;;;6.30;;
84027;SDS011;74111;45.650;25.612;2024-01-25T05:17:36;11.00;;;6.40;;
84027;SDS011;74111;45.650;25.612;2024-01-25T05:20:04;11.70;;;6.40;;
84027;SDS011;74111;45.650;25.612;2024-01-25T05:22:33;10.20;;;5.60;;
84027;SDS011;74111;45.650;25.612;2024-01-25T05:25:07;13.60;;;7.60;;
84027;SDS011;74111;45.650;25.612;2024-01-25T05:27:36;18.50;;;9.40;;
84027;SDS011;74111;45.650;25.612;2024-01-25T05:30:05;16.10;;;9.30;;
84027;SDS011;74111;45.650;25.612;2024-01-25T05:32:34;16.70;;;9.40;;
84027;SDS011;74111;45.650;25.612;2024-01-25T05:35:02;12.80;;;7.50;;
84027;SDS011;74111;45.650;25.612;2024-01-25T05:37:32;15.60;;;8.00;;
84027;SDS011;74111;45.650;25.612;2024-01-25T05:40:00;13.70;;;7.20;;
84027;SDS011;74111;45.650;25.612;2024-01-25T05:42:28;14.30;;;8.10;;
84027;SDS011;74111;45.650;25.612;2024-01-25T05:44:56;11.30;;;6.10;;
84027;SDS011;74111;45.650;25.612;2024-01-25T05:47:25;10.80;;;5.90;;
84027;SDS011;74111;45.650;25.612;2024-01-25T05:49:54;11.90;;;6.90;;
84027;SDS011;74111;45.650;25.612;2024-01-25T05:54:52;15.70;;;8.50;;
84027;SDS011;74111;45.650;25.612;2024-01-25T05:57:20;14.70;;;8.30;;
84027;SDS011;74111;45.650;25.612;2024-01-25T05:59:49;14.10;;;7.60;;
84027;SDS011;74111;45.650;25.612;2024-01-25T06:02:17;15.40;;;8.10;;
84027;SDS011;74111;45.650;25.612;2024-01-25T06:04:45;13.50;;;8.00;;
84027;SDS011;74111;45.650;25.612;2024-01-25T06:07:14;8.90;;;5.40;;
84027;SDS011;74111;45.650;25.612;2024-01-25T06:09:42;13.10;;;6.90;;
84027;SDS011;74111;45.650;25.612;2024-01-25T06:12:11;14.10;;;6.70;;
84027;SDS011;74111;45.650;25.612;2024-01-25T06:14:39;14.50;;;8.70;;
84027;SDS011;74111;45.650;25.612;2024-01-25T06:17:07;11.90;;;7.40;;
84027;SDS011;74111;45.650;25.612;2024-01-25T06:19:35;10.50;;;6.70;;
84027;SDS011;74111;45.650;25.612;2024-01-25T06:22:04;11.10;;;5.60;;
84027;SDS011;74111;45.650;25.612;2024-01-25T06:24:32;10.90;;;6.50;;
84027;SDS011;74111;45.650;25.612;2024-01-25T06:27:00;11.40;;;6.40;;
84027;SDS011;74111;45.650;25.612;2024-01-25T06:29:28;12.30;;;7.00;;
84027;SDS011;74111;45.650;25.612;2024-01-25T06:31:56;9.90;;;5.80;;
84027;SDS011;74111;45.650;25.612;2024-01-25T06:34:24;18.50;;;9.70;;
84027;SDS011;74111;45.650;25.612;2024-01-25T06:36:53;10.40;;;4.00;;
84027;SDS011;74111;45.650;25.612;2024-01-25T06:39:21;12.50;;;7.40;;
84027;SDS011;74111;45.650;25.612;2024-01-25T06:41:49;7.70;;;4.90;;
84027;SDS011;74111;45.650;25.612;2024-01-25T06:44:18;12.20;;;7.00;;
84027;SDS011;74111;45.650;25.612;2024-01-25T06:46:46;11.50;;;7.40;;
84027;SDS011;74111;45.650;25.612;2024-01-25T06:49:14;12.70;;;6.80;;
84027;SDS011;74111;45.650;25.612;2024-01-25T06:51:43;11.50;;;6.70;;
84027;SDS011;74111;45.650;25.612;2024-01-25T06:54:11;12.00;;;6.90;;
84027;SDS011;74111;45.650;25.612;2024-01-25T06:56:39;12.20;;;6.10;;
84027;SDS011;74111;45.650;25.612;2024-01-25T06:59:08;14.60;;;7.90;;
84027;SDS011;74111;45.650;25.612;2024-01-25T07:01:36;9.70;;;5.80;;
84027;SDS011;74111;45.650;25.612;2024-01-25T07:04:05;13.60;;;8.90;;
84027;SDS011;74111;45.650;25.612;2024-01-25T07:06:34;15.80;;;7.70;;
84027;SDS011;74111;45.650;25.612;2024-01-25T07:09:02;14.10;;;9.00;;
84027;SDS011;74111;45.650;25.612;2024-01-25T07:11:31;15.20;;;9.40;;
84027;SDS011;74111;45.650;25.612;2024-01-25T07:13:59;12.90;;;8.40;;
84027;SDS011;74111;45.650;25.612;2024-01-25T07:16:28;12.40;;;8.50;;
84027;SDS011;74111;45.650;25.612;2024-01-25T07:18:58;10.60;;;6.50;;
84027;SDS011;74111;45.650;25.612;2024-01-25T07:21:27;13.50;;;7.50;;
84027;SDS011;74111;45.650;25.612;2024-01-25T07:23:55;13.70;;;7.60;;
84027;SDS011;74111;45.650;25.612;2024-01-25T07:26:23;11.30;;;6.40;;
84027;SDS011;74111;45.650;25.612;2024-01-25T07:28:52;10.60;;;6.40;;
84027;SDS011;74111;45.650;25.612;2024-01-25T07:31:26;11.10;;;7.80;;
84027;SDS011;74111;45.650;25.612;2024-01-25T07:33:55;16.50;;;8.90;;
84027;SDS011;74111;45.650;25.612;2024-01-25T07:36:24;15.10;;;9.00;;
84027;SDS011;74111;45.650;25.612;2024-01-25T07:38:52;14.60;;;8.50;;
84027;SDS011;74111;45.650;25.612;2024-01-25T07:41:21;17.30;;;8.80;;
84027;SDS011;74111;45.650;25.612;2024-01-25T07:43:50;11.70;;;6.70;;
84027;SDS011;74111;45.650;25.612;2024-01-25T07:46:22;13.50;;;8.10;;
84027;SDS011;74111;45.650;25.612;2024-01-25T07:48:52;12.80;;;8.40;;
84027;SDS011;74111;45.650;25.612;2024-01-25T07:51:21;15.60;;;8.50;;
84027;SDS011;74111;45.650;25.612;2024-01-25T07:53:49;13.40;;;6.50;;
84027;SDS011;74111;45.650;25.612;2024-01-25T07:56:18;13.10;;;7.20;;
84027;SDS011;74111;45.650;25.612;2024-01-25T07:58:50;11.10;;;5.50;;
84027;SDS011;74111;45.650;25.612;2024-01-25T08:01:20;9.30;;;5.50;;
84027;SDS011;74111;45.650;25.612;2024-01-25T08:03:50;10.60;;;7.20;;
84027;SDS011;74111;45.650;25.612;2024-01-25T08:06:19;10.10;;;5.70;;
84027;SDS011;74111;45.650;25.612;2024-01-25T08:08:47;8.50;;;5.00;;
84027;SDS011;74111;45.650;25.612;2024-01-25T08:11:16;5.90;;;3.30;;
84027;SDS011;74111;45.650;25.612;2024-01-25T08:13:46;8.60;;;5.10;;
84027;SDS011;74111;45.650;25.612;2024-01-25T08:16:18;8.60;;;4.80;;
84027;SDS011;74111;45.650;25.612;2024-01-25T08:18:49;5.30;;;3.90;;
84027;SDS011;74111;45.650;25.612;2024-01-25T08:21:18;12.80;;;6.00;;
84027;SDS011;74111;45.650;25.612;2024-01-25T08:23:47;8.90;;;6.10;;
84027;SDS011;74111;45.650;25.612;2024-01-25T08:26:15;13.20;;;7.30;;
84027;SDS011;74111;45.650;25.612;2024-01-25T08:28:43;13.60;;;6.00;;
84027;SDS011;74111;45.650;25.612;2024-01-25T08:31:12;10.00;;;5.30;;
84027;SDS011;74111;45.650;25.612;2024-01-25T08:33:41;9.80;;;5.30;;
84027;SDS011;74111;45.650;25.612;2024-01-25T08:36:13;9.90;;;5.50;;
84027;SDS011;74111;45.650;25.612;2024-01-25T08:38:45;14.40;;;8.00;;
84027;SDS011;74111;45.650;25.612;2024-01-25T08:41:13;9.20;;;6.20;;
84027;SDS011;74111;45.650;25.612;2024-01-25T08:43:43;9.90;;;5.80;;
84027;SDS011;74111;45.650;25.612;2024-01-25T08:46:13;9.90;;;5.40;;
84027;SDS011;74111;45.650;25.612;2024-01-25T08:48:43;10.50;;;4.60;;
84027;SDS011;74111;45.650;25.612;2024-01-25T08:51:12;8.30;;;5.20;;
84027;SDS011;74111;45.650;25.612;2024-01-25T08:53:40;9.50;;;6.20;;
84027;SDS011;74111;45.650;25.612;2024-01-25T08:56:08;8.20;;;5.70;;
84027;SDS011;74111;45.650;25.612;2024-01-25T08:58:36;5.00;;;3.50;;
84027;SDS011;74111;45.650;25.612;2024-01-25T09:01:05;9.90;;;4.60;;
84027;SDS011;74111;45.650;25.612;2024-01-25T09:03:33;5.00;;;3.50;;
84027;SDS011;74111;45.650;25.612;2024-01-25T09:06:02;8.80;;;5.70;;
84027;SDS011;74111;45.650;25.612;2024-01-25T09:08:34;8.40;;;4.30;;
84027;SDS011;74111;45.650;25.612;2024-01-25T09:11:03;12.30;;;5.00;;
84027;SDS011;74111;45.650;25.612;2024-01-25T09:13:31;14.50;;;7.30;;
84027;SDS011;74111;45.650;25.612;2024-01-25T09:16:11;11.00;;;7.30;;
84027;SDS011;74111;45.650;25.612;2024-01-25T09:18:40;17.50;;;7.30;;
84027;SDS011;74111;45.650;25.612;2024-01-25T09:21:08;20.30;;;6.90;;
84027;SDS011;74111;45.650;25.612;2024-01-25T09:23:40;20.80;;;7.80;;
84027;SDS011;74111;45.650;25.612;2024-01-25T09:26:09;6.40;;;4.50;;
84027;SDS011;74111;45.650;25.612;2024-01-25T09:28:37;12.30;;;6.80;;
84027;SDS011;74111;45.650;25.612;2024-01-25T09:31:08;14.00;;;6.80;;
84027;SDS011;74111;45.650;25.612;2024-01-25T09:36:06;10.90;;;6.80;;
84027;SDS011;74111;45.650;25.612;2024-01-25T09:38:35;12.90;;;6.80;;
84027;SDS011;74111;45.650;25.612;2024-01-25T09:41:03;17.40;;;8.60;;
84027;SDS011;74111;45.650;25.612;2024-01-25T09:43:32;20.90;;;9.50;;
84027;SDS011;74111;45.650;25.612;2024-01-25T09:46:02;8.70;;;5.40;;
84027;SDS011;74111;45.650;25.612;2024-01-25T09:48:30;12.20;;;8.20;;
84027;SDS011;74111;45.650;25.612;2024-01-25T09:50:59;11.50;;;7.60;;
84027;SDS011;74111;45.650;25.612;2024-01-25T09:53:28;8.70;;;4.00;;
84027;SDS011;74111;45.650;25.612;2024-01-25T09:56:09;13.50;;;6.60;;
84027;SDS011;74111;45.650;25.612;2024-01-25T09:58:43;12.80;;;5.40;;
84027;SDS011;74111;45.650;25.612;2024-01-25T10:01:14;7.10;;;3.90;;
84027;SDS011;74111;45.650;25.612;2024-01-25T10:03:44;10.60;;;5.00;;
84027;SDS011;74111;45.650;25.612;2024-01-25T10:06:15;10.60;;;5.80;;
84027;SDS011;74111;45.650;25.612;2024-01-25T10:08:45;8.00;;;4.60;;
84027;SDS011;74111;45.650;25.612;2024-01-25T10:11:14;6.30;;;3.90;;
84027;SDS011;74111;45.650;25.612;2024-01-25T10:13:44;8.70;;;4.20;;
84027;SDS011;74111;45.650;25.612;2024-01-25T10:16:16;11.20;;;5.60;;
84027;SDS011;74111;45.650;25.612;2024-01-25T10:18:48;6.30;;;3.80;;
84027;SDS011;74111;45.650;25.612;2024-01-25T10:21:19;10.90;;;6.40;;
84027;SDS011;74111;45.650;25.612;2024-01-25T10:23:49;10.60;;;5.60;;
84027;SDS011;74111;45.650;25.612;2024-01-25T10:26:19;4.20;;;3.50;;
84027;SDS011;74111;45.650;25.612;2024-01-25T10:28:52;10.10;;;5.60;;
84027;SDS011;74111;45.650;25.612;2024-01-25T10:31:28;6.20;;;2.80;;
84027;SDS011;74111;45.650;25.612;2024-01-25T10:33:58;11.40;;;4.70;;
84027;SDS011;74111;45.650;25.612;2024-01-25T10:36:28;11.70;;;4.70;;
84027;SDS011;74111;45.650;25.612;2024-01-25T10:38:58;4.60;;;2.70;;
84027;SDS011;74111;45.650;25.612;2024-01-25T10:41:28;7.20;;;3.40;;
84027;SDS011;74111;45.650;25.612;2024-01-25T10:43:59;8.00;;;2.40;;
84027;SDS011;74111;45.650;25.612;2024-01-25T10:46:29;10.00;;;3.80;;
84027;SDS011;74111;45.650;25.612;2024-01-25T10:48:57;6.60;;;3.20;;
84027;SDS011;74111;45.650;25.612;2024-01-25T10:51:29;6.70;;;2.40;;
84027;SDS011;74111;45.650;25.612;2024-01-25T10:53:59;8.80;;;4.30;;
84027;SDS011;74111;45.650;25.612;2024-01-25T10:56:28;9.30;;;4.40;;
84027;SDS011;74111;45.650;25.612;2024-01-25T10:58:57;6.10;;;3.50;;
84027;SDS011;74111;45.650;25.612;2024-01-25T11:01:26;10.70;;;4.30;;
84027;SDS011;74111;45.650;25.612;2024-01-25T11:03:56;8.30;;;4.60;;
84027;SDS011;74111;45.650;25.612;2024-01-25T11:06:24;7.80;;;3.70;;
84027;SDS011;74111;45.650;25.612;2024-01-25T11:09:04;6.80;;;3.50;;
84027;SDS011;74111;45.650;25.612;2024-01-25T11:11:35;9.50;;;4.00;;
84027;SDS011;74111;45.650;25.612;2024-01-25T11:14:03;7.20;;;4.10;;
84027;SDS011;74111;45.650;25.612;2024-01-25T11:16:33;7.90;;;3.80;;
84027;SDS011;74111;45.650;25.612;2024-01-25T11:19:04;9.30;;;4.40;;
84027;SDS011;74111;45.650;25.612;2024-01-25T11:21:41;6.30;;;3.10;;
84027;SDS011;74111;45.650;25.612;2024-01-25T11:24:13;6.20;;;3.00;;
84027;SDS011;74111;45.650;25.612;2024-01-25T11:26:47;7.80;;;4.40;;
84027;SDS011;74111;45.650;25.612;2024-01-25T11:29:16;7.70;;;4.80;;
84027;SDS011;74111;45.650;25.612;2024-01-25T11:31:49;8.70;;;3.60;;
84027;SDS011;74111;45.650;25.612;2024-01-25T11:34:18;7.80;;;3.60;;
84027;SDS011;74111;45.650;25.612;2024-01-25T11:36:47;5.10;;;3.20;;
84027;SDS011;74111;45.650;25.612;2024-01-25T11:39:16;8.60;;;3.80;;
84027;SDS011;74111;45.650;25.612;2024-01-25T11:41:47;6.30;;;3.20;;
84027;SDS011;74111;45.650;25.612;2024-01-25T11:44:16;4.70;;;3.30;;
84027;SDS011;74111;45.650;25.612;2024-01-25T11:46:44;13.60;;;2.50;;
84027;SDS011;74111;45.650;25.612;2024-01-25T11:49:13;6.30;;;3.20;;
84027;SDS011;74111;45.650;25.612;2024-01-25T11:51:41;8.90;;;3.00;;
84027;SDS011;74111;45.650;25.612;2024-01-25T11:54:11;8.00;;;3.40;;
84027;SDS011;74111;45.650;25.612;2024-01-25T11:56:39;5.50;;;2.20;;
84027;SDS011;74111;45.650;25.612;2024-01-25T11:59:10;7.30;;;3.30;;
84027;SDS011;74111;45.650;25.612;2024-01-25T12:01:39;11.40;;;4.00;;
84027;SDS011;74111;45.650;25.612;2024-01-25T12:04:09;9.50;;;3.40;;
84027;SDS011;74111;45.650;25.612;2024-01-25T12:06:38;9.70;;;4.10;;
84027;SDS011;74111;45.650;25.612;2024-01-25T12:09:10;8.10;;;3.30;;
84027;SDS011;74111;45.650;25.612;2024-01-25T12:11:40;13.60;;;4.40;;
84027;SDS011;74111;45.650;25.612;2024-01-25T12:14:09;12.00;;;4.30;;
84027;SDS011;74111;45.650;25.612;2024-01-25T12:16:38;10.80;;;4.10;;
84027;SDS011;74111;45.650;25.612;2024-01-25T12:19:07;7.10;;;3.20;;
84027;SDS011;74111;45.650;25.612;2024-01-25T12:21:36;7.80;;;3.10;;
84027;SDS011;74111;45.650;25.612;2024-01-25T12:24:05;7.80;;;2.70;;
84027;SDS011;74111;45.650;25.612;2024-01-25T12:26:36;8.00;;;2.50;;
84027;SDS011;74111;45.650;25.612;2024-01-25T12:31:33;8.30;;;3.40;;
84027;SDS011;74111;45.650;25.612;2024-01-25T12:34:02;7.70;;;3.50;;
84027;SDS011;74111;45.650;25.612;2024-01-25T12:36:31;7.70;;;3.40;;
84027;SDS011;74111;45.650;25.612;2024-01-25T12:39:01;16.90;;;4.60;;
84027;SDS011;74111;45.650;25.612;2024-01-25T12:41:30;10.70;;;4.60;;
84027;SDS011;74111;45.650;25.612;2024-01-25T12:46:28;6.70;;;2.70;;
84027;SDS011;74111;45.650;25.612;2024-01-25T12:49:01;5.70;;;2.10;;
84027;SDS011;74111;45.650;25.612;2024-01-25T12:51:31;3.50;;;2.70;;
84027;SDS011;74111;45.650;25.612;2024-01-25T12:53:59;7.00;;;2.50;;
84027;SDS011;74111;45.650;25.612;2024-01-25T12:56:28;4.20;;;2.00;;
84027;SDS011;74111;45.650;25.612;2024-01-25T12:58:56;10.40;;;3.50;;
84027;SDS011;74111;45.650;25.612;2024-01-25T13:01:24;6.50;;;3.40;;
84027;SDS011;74111;45.650;25.612;2024-01-25T13:03:53;7.20;;;3.80;;
84027;SDS011;74111;45.650;25.612;2024-01-25T13:06:21;5.00;;;2.30;;
84027;SDS011;74111;45.650;25.612;2024-01-25T13:08:49;6.80;;;3.60;;
84027;SDS011;74111;45.650;25.612;2024-01-25T13:11:17;3.90;;;2.60;;
84027;SDS011;74111;45.650;25.612;2024-01-25T13:13:46;9.10;;;2.80;;
84027;SDS011;74111;45.650;25.612;2024-01-25T13:16:14;3.80;;;2.40;;
84027;SDS011;74111;45.650;25.612;2024-01-25T13:18:42;6.30;;;3.10;;
84027;SDS011;74111;45.650;25.612;2024-01-25T13:21:11;9.10;;;3.30;;
84027;SDS011;74111;45.650;25.612;2024-01-25T13:23:41;5.20;;;2.90;;
84027;SDS011;74111;45.650;25.612;2024-01-25T13:26:09;7.80;;;3.10;;
84027;SDS011;74111;45.650;25.612;2024-01-25T13:28:37;5.00;;;2.30;;
84027;SDS011;74111;45.650;25.612;2024-01-25T13:31:05;10.00;;;3.80;;
84027;SDS011;74111;45.650;25.612;2024-01-25T13:33:33;4.80;;;1.90;;
84027;SDS011;74111;45.650;25.612;2024-01-25T13:36:02;6.20;;;3.00;;
84027;SDS011;74111;45.650;25.612;2024-01-25T13:38:37;8.30;;;3.40;;
84027;SDS011;74111;45.650;25.612;2024-01-25T13:41:05;7.30;;;3.60;;
84027;SDS011;74111;45.650;25.612;2024-01-25T13:43:33;6.20;;;3.50;;
84027;SDS011;74111;45.650;25.612;2024-01-25T13:46:01;5.80;;;2.90;;
84027;SDS011;74111;45.650;25.612;2024-01-25T13:48:29;8.10;;;4.70;;
84027;SDS011;74111;45.650;25.612;2024-01-25T13:50:57;8.70;;;3.50;;
84027;SDS011;74111;45.650;25.612;2024-01-25T13:53:26;5.70;;;2.90;;
84027;SDS011;74111;45.650;25.612;2024-01-25T13:55:54;7.10;;;3.20;;
84027;SDS011;74111;45.650;25.612;2024-01-25T13:58:22;11.80;;;4.10;;
84027;SDS011;74111;45.650;25.612;2024-01-25T14:00:50;5.20;;;2.90;;
84027;SDS011;74111;45.650;25.612;2024-01-25T14:03:19;9.90;;;4.50;;
84027;SDS011;74111;45.650;25.612;2024-01-25T14:05:47;5.50;;;3.40;;
84027;SDS011;74111;45.650;25.612;2024-01-25T14:08:16;6.00;;;3.30;;
84027;SDS011;74111;45.650;25.612;2024-01-25T14:10:44;7.10;;;3.30;;
84027;SDS011;74111;45.650;25.612;2024-01-25T14:13:13;5.00;;;2.80;;
84027;SDS011;74111;45.650;25.612;2024-01-25T14:15:41;6.10;;;3.40;;
84027;SDS011;74111;45.650;25.612;2024-01-25T14:18:10;4.30;;;2.90;;
84027;SDS011;74111;45.650;25.612;2024-01-25T14:20:38;5.90;;;3.00;;
84027;SDS011;74111;45.650;25.612;2024-01-25T14:23:06;8.30;;;3.30;;
84027;SDS011;74111;45.650;25.612;2024-01-25T14:25:35;9.50;;;3.60;;
84027;SDS011;74111;45.650;25.612;2024-01-25T14:28:03;8.20;;;3.10;;
84027;SDS011;74111;45.650;25.612;2024-01-25T14:30:31;6.50;;;3.00;;
84027;SDS011;74111;45.650;25.612;2024-01-25T14:33:00;6.80;;;4.00;;
84027;SDS011;74111;45.650;25.612;2024-01-25T14:35:28;6.80;;;3.50;;
84027;SDS011;74111;45.650;25.612;2024-01-25T14:37:57;3.60;;;2.50;;
84027;SDS011;74111;45.650;25.612;2024-01-25T14:40:25;4.90;;;2.80;;
84027;SDS011;74111;45.650;25.612;2024-01-25T14:43:13;7.30;;;2.90;;
84027;SDS011;74111;45.650;25.612;2024-01-25T14:48:11;7.00;;;2.80;;
84027;SDS011;74111;45.650;25.612;2024-01-25T14:50:39;8.90;;;3.30;;
84027;SDS011;74111;45.650;25.612;2024-01-25T14:53:07;6.80;;;3.10;;